Time;durP1;ratioP1;P1;durP2;ratioP2;P2;SDS_P1;SDS_P2;PMS_P1;PMS_P2;Temp;Humidity;BMP_temperature;BMP_pressure;BME280_temperature;BME280_humidity;BME280_pressure;Samples;Min_cycle;Max_cycle;Signal;HPM_P1;HPM_P2
2024/03/20 00:01:15;;;;;;;;;;;;;;;-0.08;73.08;100979.77;110689;1269;22538;-88
2024/03/20 00:04:30;;;;;;;;;;;;;;;-0.21;72.91;100977.23;110971;1261;22485;-88
2024/03/20 00:07:37;;;;;;;;;;;;;;;-0.27;73.14;100975.96;111152;1255;22819;-88
2024/03/20 00:10:57;;;;;;;;;;;;;;;-0.26;73.23;100979.25;110731;1272;22426;31
2024/03/20 00:13:58;;;;;;;;;;;;;;;-0.26;73.39;100977.05;111345;1257;23410;31
2024/03/20 00:17:07;;;;;;;;;;;;;;;-0.27;73.45;100976.91;110756;1257;22603;-88
2024/03/20 00:20:19;;;;;;;;;;;;;;;-0.29;73.59;100976.48;110781;1259;22533;-87
2024/03/20 00:23:11;;;;;;;;;;;;;;;-0.34;73.78;100970.06;110842;1260;23516;-88
2024/03/20 00:26:20;;;;;;;;;;;;;;;-0.36;73.95;100969.04;110358;1278;23102;-88
2024/03/20 00:29:19;;;;;;;;;;;;;;;-0.39;74.16;100968.95;110447;1257;24026;31
2024/03/20 00:32:29;;;;;;;;;;;;;;;-0.42;74.41;100969.02;110876;1255;22561;-88
2024/03/20 00:35:20;;;;;;;;;;;;;;;-0.43;74.50;100963.75;110397;1261;22569;-87
2024/03/20 00:38:14;;;;;;;;;;;;;;;-0.46;74.41;100965.31;110633;1269;22582;-88
2024/03/20 00:41:29;;;;;;;;;;;;;;;-0.53;74.40;100961.92;110401;1279;22456;-87
2024/03/20 00:45:00;;;;;;;;;;;;;;;-0.55;74.49;100955.41;110478;1273;22545;-88
2024/03/20 00:48:09;;;;;;;;;;;;;;;-0.52;74.57;100948.30;110618;1264;22854;-89
2024/03/20 00:51:08;;;;;;;;;;;;;;;-0.51;74.56;100942.42;111431;1260;22870;31
2024/03/20 00:54:35;;;;;;;;;;;;;;;-0.51;74.78;100942.35;111282;1244;24991;-88
2024/03/20 00:57:39;;;;;;;;;;;;;;;-0.53;74.83;100939.35;110751;1254;22580;-88
2024/03/20 01:00:49;;;;;;;;;;;;;;;-0.52;75.00;100931.85;110567;1276;23495;-89
2024/03/20 01:03:50;;;;;;;;;;;;;;;-0.54;75.29;100931.75;110630;1277;22614;-87
2024/03/20 01:06:58;;;;;;;;;;;;;;;-0.56;75.35;100930.73;110607;1278;22446;-89
2024/03/20 01:10:03;;;;;;;;;;;;;;;-0.56;75.36;100923.20;110763;1270;25373;-89
2024/03/20 01:13:11;;;;;;;;;;;;;;;-0.55;75.42;100919.70;110649;1269;25400;-88
2024/03/20 01:16:36;;;;;;;;;;;;;;;-0.54;75.41;100918.59;111335;1255;22578;31
2024/03/20 01:19:31;;;;;;;;;;;;;;;-0.55;75.52;100915.21;111646;1255;22594;-88
2024/03/20 01:22:51;;;;;;;;;;;;;;;-0.57;75.62;100914.34;111467;1254;23488;-86
2024/03/20 01:25:48;;;;;;;;;;;;;;;-0.59;75.69;100916.45;110984;1255;22537;-88
2024/03/20 01:28:55;;;;;;;;;;;;;;;-0.61;75.59;100914.34;110717;1272;23684;-88
2024/03/20 01:35:13;;;;;;;;;;;;;;;-0.63;75.72;100909.48;111135;1255;23284;-86
2024/03/20 01:38:05;;;;;;;;;;;;;;;-0.67;75.53;100909.30;111106;1258;22544;-87
2024/03/20 01:41:04;;;;;;;;;;;;;;;-0.72;75.30;100910.55;110731;1273;23262;-89
2024/03/20 01:44:12;;;;;;;;;;;;;;;-0.78;75.45;100916.63;110863;1273;22532;-89
2024/03/20 01:47:05;;;;;;;;;;;;;;;-0.83;75.49;100919.52;111482;1256;23727;-86
2024/03/20 01:50:18;;;;;;;;;;;;;;;-0.85;75.50;100915.11;111473;1255;22856;31
2024/03/20 01:53:22;;;;;;;;;;;;;;;-0.91;75.43;100913.69;111567;1266;22471;-88
2024/03/20 01:56:18;;;;;;;;;;;;;;;-0.92;75.58;100912.90;111050;1255;22971;-87
2024/03/20 01:59:39;;;;;;;;;;;;;;;-0.92;75.35;100909.61;110724;1268;22514;-88
2024/03/20 02:02:36;;;;;;;;;;;;;;;-0.90;75.26;100910.01;110726;1272;22999;-88
2024/03/20 02:05:31;;;;;;;;;;;;;;;-0.89;75.32;100910.09;110580;1271;22907;-89
2024/03/20 02:08:35;;;;;;;;;;;;;;;-0.89;75.34;100911.34;110513;1275;22741;-89
2024/03/20 02:11:45;;;;;;;;;;;;;;;-0.93;75.46;100907.02;110603;1271;23580;-89
2024/03/20 02:15:13;;;;;;;;;;;;;;;-0.95;75.60;100902.15;110983;1255;23694;-88
2024/03/20 02:18:18;;;;;;;;;;;;;;;-0.94;75.60;100897.69;110722;1274;24474;-88
2024/03/20 02:21:32;;;;;;;;;;;;;;;-0.93;75.65;100891.89;111000;1267;22533;-89
2024/03/20 02:24:48;;;;;;;;;;;;;;;-0.94;75.70;100886.64;110634;1269;23851;-89
2024/03/20 02:27:53;;;;;;;;;;;;;;;-0.97;75.93;100885.93;110592;1274;23748;-89
2024/03/20 02:30:46;;;;;;;;;;;;;;;-0.98;75.94;100881.79;110568;1275;22515;-88
2024/03/20 02:34:18;;;;;;;;;;;;;;;-0.99;76.02;100883.02;110631;1267;22595;-89
2024/03/20 02:37:33;;;;;;;;;;;;;;;-0.99;76.23;100879.50;110362;1270;23311;-88
2024/03/20 02:41:00;;;;;;;;;;;;;;;-1.02;76.20;100876.60;110343;1275;22521;-89
2024/03/20 02:43:58;;;;;;;;;;;;;;;-1.02;76.28;100876.20;110457;1276;24225;-89
2024/03/20 02:47:50;;;;;;;;;;;;;;;-1.02;76.26;100872.61;110686;1274;22569;-89
2024/03/20 02:50:43;;;;;;;;;;;;;;;-1.02;76.33;100875.58;110437;1276;22537;-88
2024/03/20 02:53:47;;;;;;;;;;;;;;;-1.05;76.43;100874.94;110450;1274;24196;-89
2024/03/20 02:57:14;;;;;;;;;;;;;;;-1.07;76.40;100875.16;110613;1268;22565;-90
2024/03/20 03:00:21;;;;;;;;;;;;;;;-1.09;76.28;100871.80;110413;1274;22453;-87
2024/03/20 03:03:39;;;;;;;;;;;;;;;-1.09;76.39;100872.66;110639;1273;22524;-89
2024/03/20 03:06:34;;;;;;;;;;;;;;;-1.10;76.28;100872.27;110591;1274;24531;-90
2024/03/20 03:10:15;;;;;;;;;;;;;;;-1.12;76.34;100873.98;110628;1272;22530;-90
2024/03/20 03:13:59;;;;;;;;;;;;;;;-1.22;76.57;100880.27;110635;1268;23668;-87
2024/03/20 03:17:19;;;;;;;;;;;;;;;-1.28;76.67;100875.85;110586;1272;22533;-88
2024/03/20 03:20:29;;;;;;;;;;;;;;;-1.27;76.86;100872.80;110542;1275;22557;-88
2024/03/20 03:23:55;;;;;;;;;;;;;;;-1.25;76.73;100870.78;110465;1270;22546;-88
2024/03/20 03:27:28;;;;;;;;;;;;;;;-1.28;76.55;100881.40;110506;1271;23365;-88
2024/03/20 03:30:37;;;;;;;;;;;;;;;-1.34;76.50;100890.14;110345;1276;22545;-88
2024/03/20 03:33:52;;;;;;;;;;;;;;;-1.36;76.71;100883.08;110226;1276;22605;-89
2024/03/20 03:37:03;;;;;;;;;;;;;;;-1.35;76.84;100882.54;110088;1277;22519;-89
2024/03/20 03:40:30;;;;;;;;;;;;;;;-1.34;76.97;100880.27;110354;1273;24234;-87
2024/03/20 03:44:21;;;;;;;;;;;;;;;-1.32;76.91;100880.59;110509;1276;22555;-89
2024/03/20 03:47:41;;;;;;;;;;;;;;;-1.29;77.07;100880.15;110438;1271;22522;-88
2024/03/20 03:51:05;;;;;;;;;;;;;;;-1.30;77.26;100888.90;110307;1276;22543;-87
2024/03/20 03:54:27;;;;;;;;;;;;;;;-1.32;77.46;100890.62;110563;1274;22495;-88
2024/03/20 03:57:43;;;;;;;;;;;;;;;-1.31;77.51;100884.29;110737;1269;22571;-89
2024/03/20 04:01:15;;;;;;;;;;;;;;;-1.34;77.69;100878.55;110297;1276;22547;-89
2024/03/20 04:04:34;;;;;;;;;;;;;;;-1.33;77.66;100875.27;110268;1276;22540;-87
2024/03/20 04:07:35;;;;;;;;;;;;;;;-1.35;77.84;100874.79;110041;1273;22526;-89
2024/03/20 04:10:31;;;;;;;;;;;;;;;-1.35;77.83;100870.88;110312;1275;22553;-89
2024/03/20 04:13:37;;;;;;;;;;;;;;;-1.35;77.87;100873.01;110263;1276;22688;-89
2024/03/20 04:17:40;;;;;;;;;;;;;;;-1.34;77.83;100873.86;110506;1270;22550;-89
2024/03/20 04:21:25;;;;;;;;;;;;;;;-1.37;77.84;100874.71;110023;1278;22561;-88
2024/03/20 04:24:53;;;;;;;;;;;;;;;-1.36;77.80;100871.97;110628;1267;22518;-89
2024/03/20 04:28:35;;;;;;;;;;;;;;;-1.39;77.72;100878.05;110318;1271;23656;-88
2024/03/20 04:32:11;;;;;;;;;;;;;;;-1.48;77.84;100882.23;110538;1274;22522;-89
2024/03/20 04:35:37;;;;;;;;;;;;;;;-1.52;77.77;100875.17;110136;1271;22592;-89
2024/03/20 04:38:32;;;;;;;;;;;;;;;-1.52;77.88;100871.48;110257;1277;24670;-89
2024/03/20 04:41:53;;;;;;;;;;;;;;;-1.55;77.80;100874.76;109047;1276;22501;-78
2024/03/20 04:44:43;;;;;;;;;;;;;;;-1.56;77.87;100880.93;107051;1277;22552;-79
2024/03/20 04:47:33;;;;;;;;;;;;;;;-1.53;77.83;100880.00;107310;1276;22465;-77
2024/03/20 04:50:22;;;;;;;;;;;;;;;-1.53;77.84;100881.18;107364;1272;22509;-77
2024/03/20 04:53:11;;;;;;;;;;;;;;;-1.55;77.90;100878.52;107328;1265;25370;-77
2024/03/20 04:56:01;;;;;;;;;;;;;;;-1.57;77.94;100873.73;107270;1276;22787;-78
2024/03/20 04:58:50;;;;;;;;;;;;;;;-1.58;77.94;100874.51;107213;1275;23869;-77
2024/03/20 05:01:39;;;;;;;;;;;;;;;-1.59;78.07;100875.52;107404;1273;22586;-77
2024/03/20 05:04:29;;;;;;;;;;;;;;;-1.60;78.12;100873.94;107175;1269;22498;-77
2024/03/20 05:07:18;;;;;;;;;;;;;;;-1.61;78.17;100879.02;107078;1275;22508;-77
2024/03/20 05:10:08;;;;;;;;;;;;;;;-1.62;78.35;100880.19;107115;1269;22592;-79
2024/03/20 05:12:57;;;;;;;;;;;;;;;-1.65;78.51;100881.73;106944;1277;24411;-81
2024/03/20 05:15:47;;;;;;;;;;;;;;;-1.66;78.72;100883.21;107289;1277;23329;-81
2024/03/20 05:18:36;;;;;;;;;;;;;;;-1.67;78.89;100882.96;107363;1277;25365;-82
2024/03/20 05:21:25;;;;;;;;;;;;;;;-1.68;78.98;100881.32;107416;1274;24190;-81
2024/03/20 05:24:15;;;;;;;;;;;;;;;-1.68;78.90;100878.89;107035;1272;23372;-80
2024/03/20 05:27:06;;;;;;;;;;;;;;;-1.68;78.83;100881.40;107439;1270;23254;-80
2024/03/20 05:29:55;;;;;;;;;;;;;;;-1.67;78.97;100880.31;110637;1276;22491;-79
2024/03/20 05:32:44;;;;;;;;;;;;;;;-1.66;79.07;100877.89;110614;1271;22522;-79
2024/03/20 05:35:34;;;;;;;;;;;;;;;-1.66;79.14;100879.30;110566;1271;22333;-79
2024/03/20 05:38:23;;;;;;;;;;;;;;;-1.66;79.18;100882.90;110660;1276;23160;-78
2024/03/20 05:41:12;;;;;;;;;;;;;;;-1.63;79.31;100886.91;110379;1277;22908;-78
2024/03/20 05:44:03;;;;;;;;;;;;;;;-1.65;79.37;100892.45;110454;1276;23052;-79
2024/03/20 05:46:52;;;;;;;;;;;;;;;-1.62;79.44;100892.79;110538;1271;22408;-78
2024/03/20 05:49:43;;;;;;;;;;;;;;;-1.59;79.52;100893.27;110414;1274;22408;-78
2024/03/20 05:52:32;;;;;;;;;;;;;;;-1.56;79.54;100896.65;110424;1272;22372;-78
2024/03/20 05:55:22;;;;;;;;;;;;;;;-1.52;79.73;100898.00;110408;1272;22430;-79
2024/03/20 05:58:11;;;;;;;;;;;;;;;-1.49;79.87;100900.67;110414;1275;22469;-78
2024/03/20 06:01:00;;;;;;;;;;;;;;;-1.46;80.25;100902.66;110718;1275;22385;-79
2024/03/20 06:03:49;;;;;;;;;;;;;;;-1.43;80.17;100903.08;110625;1276;22259;-79
2024/03/20 06:06:40;;;;;;;;;;;;;;;-1.39;80.65;100906.16;110440;1276;22347;-79
2024/03/20 06:09:32;;;;;;;;;;;;;;;-1.34;81.42;100907.34;110603;1273;22423;-79
2024/03/20 06:12:21;;;;;;;;;;;;;;;-1.30;81.52;100903.14;110451;1273;22398;-78
2024/03/20 06:15:10;;;;;;;;;;;;;;;-1.25;81.80;100899.81;110586;1266;23167;-79
2024/03/20 06:17:59;;;;;;;;;;;;;;;-1.20;82.17;100905.94;110593;1273;22455;-79
2024/03/20 06:20:49;;;;;;;;;;;;;;;-1.12;82.59;100906.70;110616;1269;23046;-79
2024/03/20 06:23:38;;;;;;;;;;;;;;;-1.06;82.74;100909.46;110493;1275;22377;-79
2024/03/20 06:26:27;;;;;;;;;;;;;;;-0.98;83.02;100912.87;110508;1274;22410;-80
2024/03/20 06:29:16;;;;;;;;;;;;;;;-0.91;82.93;100919.95;110598;1276;23226;-79
2024/03/20 06:32:06;;;;;;;;;;;;;;;-0.82;83.37;100919.73;110609;1273;22492;-80
2024/03/20 06:34:55;;;;;;;;;;;;;;;-0.74;83.28;100926.75;110645;1275;22405;-78
2024/03/20 06:37:46;;;;;;;;;;;;;;;-0.66;83.29;100930.38;110654;1276;23173;-79
2024/03/20 06:40:37;;;;;;;;;;;;;;;-0.58;83.30;100933.70;110601;1273;22443;-79
2024/03/20 06:43:29;;;;;;;;;;;;;;;-0.50;83.29;100935.37;110467;1271;22322;-80
2024/03/20 06:46:19;;;;;;;;;;;;;;;-0.43;83.31;100934.69;110656;1271;22505;-79
2024/03/20 06:49:09;;;;;;;;;;;;;;;-0.35;83.47;100931.02;110156;1276;22559;-79
2024/03/20 06:51:58;;;;;;;;;;;;;;;-0.27;83.78;100927.11;107289;1276;25495;-79
2024/03/20 06:54:48;;;;;;;;;;;;;;;-0.18;83.93;100930.27;107203;1277;23286;-79
2024/03/20 06:57:37;;;;;;;;;;;;;;;-0.08;84.24;100930.52;107279;1277;22748;-79
2024/03/20 07:00:27;;;;;;;;;;;;;;;0.01;84.10;100932.41;107446;1277;25372;-79
2024/03/20 07:03:18;;;;;;;;;;;;;;;0.11;84.47;100935.48;107572;1276;22503;-78
2024/03/20 07:06:08;;;;;;;;;;;;;;;0.21;84.32;100933.98;107864;1275;23778;-79
2024/03/20 07:08:57;;;;;;;;;;;;;;;0.29;84.58;100935.33;107625;1272;25316;-80
2024/03/20 07:11:48;;;;;;;;;;;;;;;0.38;84.62;100936.80;107506;1270;22819;-79
2024/03/20 07:14:37;;;;;;;;;;;;;;;0.49;84.42;100932.65;107577;1273;25529;-80
2024/03/20 07:17:26;;;;;;;;;;;;;;;0.60;84.81;100932.79;107431;1276;22692;-80
2024/03/20 07:20:15;;;;;;;;;;;;;;;0.71;84.89;100927.27;107682;1276;22660;-79
2024/03/20 07:23:07;;;;;;;;;;;;;;;0.86;85.12;100931.00;107564;1275;23331;-79
2024/03/20 07:25:56;;;;;;;;;;;;;;;0.99;85.23;100929.56;107636;1270;22503;-80
2024/03/20 07:28:45;;;;;;;;;;;;;;;1.10;85.30;100930.78;107409;1274;24256;-80
2024/03/20 07:31:35;;;;;;;;;;;;;;;1.23;85.23;100930.95;107368;1270;22531;-79
2024/03/20 07:34:24;;;;;;;;;;;;;;;1.35;85.36;100934.30;107435;1270;23430;-81
2024/03/20 07:37:13;;;;;;;;;;;;;;;1.48;85.36;100931.48;107735;1275;22643;-80
2024/03/20 07:40:04;;;;;;;;;;;;;;;1.61;85.36;100927.73;107735;1275;23176;-80
2024/03/20 07:42:56;;;;;;;;;;;;;;;1.72;85.15;100923.48;110467;1277;22279;-80
2024/03/20 07:45:46;;;;;;;;;;;;;;;1.85;85.06;100916.41;110473;1277;22248;-80
2024/03/20 07:48:39;;;;;;;;;;;;;;;1.96;84.95;100917.44;110491;1277;22341;-80
2024/03/20 07:51:29;;;;;;;;;;;;;;;2.08;84.80;100922.14;110467;1274;22332;-80
2024/03/20 07:54:23;;;;;;;;;;;;;;;2.21;84.59;100920.93;110612;1274;23147;-80
2024/03/20 07:57:12;;;;;;;;;;;;;;;2.34;84.83;100917.20;110570;1270;22409;-78
2024/03/20 08:00:01;;;;;;;;;;;;;;;2.46;84.55;100920.09;110678;1273;22378;-78
2024/03/20 08:03:00;;;;;;;;;;;;;;;2.58;84.52;100921.40;110630;1273;22593;-80
2024/03/20 08:05:49;;;;;;;;;;;;;;;2.72;84.84;100920.71;110607;1276;22359;-80
2024/03/20 08:08:38;;;;;;;;;;;;;;;2.86;84.73;100923.63;110680;1275;22458;-80
2024/03/20 08:11:27;;;;;;;;;;;;;;;3.00;84.72;100917.89;110574;1276;22421;-80
2024/03/20 08:14:17;;;;;;;;;;;;;;;3.14;84.79;100919.52;110524;1273;22307;-80
2024/03/20 08:17:07;;;;;;;;;;;;;;;3.31;84.55;100921.31;110592;1272;22435;-80
2024/03/20 08:19:57;;;;;;;;;;;;;;;3.48;84.16;100926.05;110632;1270;23243;-80
2024/03/20 08:22:46;;;;;;;;;;;;;;;3.64;83.96;100924.33;110691;1270;22308;-80
2024/03/20 08:25:35;;;;;;;;;;;;;;;3.83;84.08;100925.34;110706;1270;22404;-81
2024/03/20 08:28:25;;;;;;;;;;;;;;;3.98;83.68;100924.86;110609;1269;22345;-80
2024/03/20 08:31:14;;;;;;;;;;;;;;;4.15;83.76;100925.23;108706;1265;22558;-81
2024/03/20 08:34:04;;;;;;;;;;;;;;;4.32;83.49;100923.39;107151;1276;25420;-81
2024/03/20 08:36:53;;;;;;;;;;;;;;;4.47;82.71;100924.08;107975;1277;22514;-81
2024/03/20 08:39:43;;;;;;;;;;;;;;;4.68;82.37;100921.66;108376;1277;22642;-80
2024/03/20 08:42:32;;;;;;;;;;;;;;;4.87;81.64;100922.16;107223;1277;24368;-80
2024/03/20 08:45:21;;;;;;;;;;;;;;;5.08;80.86;100920.27;107872;1271;23141;-81
2024/03/20 08:48:11;;;;;;;;;;;;;;;5.28;80.80;100916.61;108017;1275;22563;-80
2024/03/20 08:51:00;;;;;;;;;;;;;;;5.38;80.07;100913.02;108193;1276;23392;-81
2024/03/20 08:53:50;;;;;;;;;;;;;;;5.49;79.73;100917.29;107976;1274;22509;-82
2024/03/20 08:56:39;;;;;;;;;;;;;;;5.60;79.43;100912.21;107416;1276;23200;-81
2024/03/20 08:59:30;;;;;;;;;;;;;;;5.71;79.27;100907.31;107353;1276;22621;-81
2024/03/20 09:02:20;;;;;;;;;;;;;;;5.78;78.97;100909.37;107838;1273;22535;-80
2024/03/20 09:05:10;;;;;;;;;;;;;;;5.84;78.76;100910.35;107854;1276;22591;-80
2024/03/20 09:08:00;;;;;;;;;;;;;;;5.98;78.46;100911.46;108082;1270;22552;-81
2024/03/20 09:10:49;;;;;;;;;;;;;;;6.12;77.75;100913.81;107417;1275;22524;-82
2024/03/20 09:13:39;;;;;;;;;;;;;;;6.21;77.72;100915.34;107904;1276;22638;-79
2024/03/20 09:16:29;;;;;;;;;;;;;;;6.35;77.45;100913.39;107890;1270;22502;-82
2024/03/20 09:19:18;;;;;;;;;;;;;;;6.46;77.01;100912.27;108314;1269;22529;-82
2024/03/20 09:22:07;;;;;;;;;;;;;;;6.59;76.94;100911.77;107869;1275;24280;-81
2024/03/20 09:24:57;;;;;;;;;;;;;;;6.72;76.47;100910.88;107722;1277;22501;-82
2024/03/20 09:27:46;;;;;;;;;;;;;;;6.79;76.42;100907.67;107715;1277;22576;-82
2024/03/20 09:30:35;;;;;;;;;;;;;;;6.86;75.96;100911.14;107763;1277;22624;-82
2024/03/20 09:33:25;;;;;;;;;;;;;;;6.93;75.65;100909.13;107907;1268;22526;-81
2024/03/20 09:36:14;;;;;;;;;;;;;;;6.97;75.36;100908.52;107883;1270;23231;-83
2024/03/20 09:39:04;;;;;;;;;;;;;;;7.02;75.07;100902.70;107747;1276;24358;-82
2024/03/20 09:41:53;;;;;;;;;;;;;;;7.10;74.97;100900.47;107797;1276;22509;-82
2024/03/20 09:44:43;;;;;;;;;;;;;;;7.20;74.93;100900.52;107897;1270;22613;-82
2024/03/20 09:47:32;;;;;;;;;;;;;;;7.30;74.99;100901.16;107726;1275;25304;-82
2024/03/20 09:50:24;;;;;;;;;;;;;;;7.46;75.27;100895.92;108076;1272;22606;-81
2024/03/20 09:53:13;;;;;;;;;;;;;;;7.60;74.82;100898.38;107851;1276;22596;-83
2024/03/20 09:56:09;;;;;;;;;;;;;;;7.70;73.83;100893.48;107878;1271;22621;-82
2024/03/20 09:58:59;;;;;;;;;;;;;;;7.76;73.32;100892.97;107890;1272;23184;-82
2024/03/20 10:01:48;;;;;;;;;;;;;;;7.84;73.50;100894.85;108042;1269;24367;-82
2024/03/20 10:04:38;;;;;;;;;;;;;;;7.91;73.12;100893.61;107687;1270;22511;-82
2024/03/20 10:07:27;;;;;;;;;;;;;;;7.97;72.67;100884.58;107684;1270;22512;-81
2024/03/20 10:10:17;;;;;;;;;;;;;;;8.01;71.92;100883.82;107895;1267;22522;-82
2024/03/20 10:13:12;;;;;;;;;;;;;;;8.08;71.72;100880.26;107801;1276;22537;-82
2024/03/20 10:16:07;;;;;;;;;;;;;;;8.11;71.92;100877.46;107733;1277;22512;-81
2024/03/20 10:18:56;;;;;;;;;;;;;;;8.17;71.68;100877.98;107997;1277;24385;-82
2024/03/20 10:21:45;;;;;;;;;;;;;;;8.23;71.12;100875.41;107739;1277;24216;-82
2024/03/20 10:24:35;;;;;;;;;;;;;;;8.30;70.91;100869.09;107668;1277;25528;-82
2024/03/20 10:27:25;;;;;;;;;;;;;;;8.35;70.19;100867.95;107938;1273;25436;-82
2024/03/20 10:30:18;;;;;;;;;;;;;;;8.42;70.54;100861.66;107767;1276;23918;-82
2024/03/20 10:33:07;;;;;;;;;;;;;;;8.49;69.96;100858.27;107990;1273;25428;-82
2024/03/20 10:35:59;;;;;;;;;;;;;;;8.56;70.14;100860.09;108287;1270;22504;-82
2024/03/20 10:38:49;;;;;;;;;;;;;;;8.64;69.26;100861.20;110631;1270;22457;-81
2024/03/20 10:41:38;;;;;;;;;;;;;;;8.70;68.79;100859.25;110527;1276;22428;-80
2024/03/20 10:44:28;;;;;;;;;;;;;;;8.71;68.56;100855.02;110570;1273;23368;-80
2024/03/20 10:47:17;;;;;;;;;;;;;;;8.74;68.75;100848.92;110652;1273;22519;-80
2024/03/20 10:50:13;;;;;;;;;;;;;;;8.82;68.69;100846.66;110563;1276;22406;-80
2024/03/20 10:53:02;;;;;;;;;;;;;;;8.93;68.10;100844.33;110657;1276;22424;-81
2024/03/20 10:55:52;;;;;;;;;;;;;;;9.05;67.79;100838.82;110613;1275;22460;-80
2024/03/20 10:58:42;;;;;;;;;;;;;;;9.12;67.16;100839.27;110538;1272;148809;-80
2024/03/20 11:01:32;;;;;;;;;;;;;;;9.21;67.16;100837.49;110526;1262;23190;-80
2024/03/20 11:04:32;;;;;;;;;;;;;;;9.29;66.58;100835.47;110551;1269;22396;-81
2024/03/20 11:07:36;;;;;;;;;;;;;;;9.35;66.14;100835.92;110521;1269;22407;-80
2024/03/20 11:10:28;;;;;;;;;;;;;;;9.39;66.14;100832.17;110583;1275;22463;-80
2024/03/20 11:13:22;;;;;;;;;;;;;;;9.47;65.10;100834.66;110548;1269;22400;-80
2024/03/20 11:16:21;;;;;;;;;;;;;;;9.53;64.84;100832.83;110492;1269;22364;-81
2024/03/20 11:19:11;;;;;;;;;;;;;;;9.60;64.79;100826.21;110507;1275;22366;-81
2024/03/20 11:22:00;;;;;;;;;;;;;;;9.64;64.32;100820.94;110588;1276;22253;-81
2024/03/20 11:24:50;;;;;;;;;;;;;;;9.68;63.68;100820.79;110477;1277;22257;-81
2024/03/20 11:27:39;;;;;;;;;;;;;;;9.72;63.15;100822.03;110413;1277;22420;-80
2024/03/20 11:30:28;;;;;;;;;;;;;;;9.73;62.49;100818.73;110687;1275;22305;-80
2024/03/20 11:33:18;;;;;;;;;;;;;;;9.79;62.36;100821.30;110669;1275;22407;-81
2024/03/20 11:36:09;;;;;;;;;;;;;;;9.89;62.44;100821.02;110601;1273;22478;-80
2024/03/20 11:38:58;;;;;;;;;;;;;;;10.02;62.37;100820.02;110668;1271;22528;-81
2024/03/20 11:41:47;;;;;;;;;;;;;;;10.08;61.39;100814.67;110522;1264;22407;-80
2024/03/20 11:44:39;;;;;;;;;;;;;;;10.17;61.26;100814.58;110557;1276;22389;-80
2024/03/20 11:47:28;;;;;;;;;;;;;;;10.27;60.58;100813.90;110581;1276;22361;-81
2024/03/20 11:50:17;;;;;;;;;;;;;;;10.31;59.94;100811.02;110573;1276;22408;-80
2024/03/20 11:53:07;;;;;;;;;;;;;;;10.32;59.48;100806.40;110530;1273;22507;-80
2024/03/20 11:55:56;;;;;;;;;;;;;;;10.33;57.80;100803.27;110621;1270;22413;-82
2024/03/20 11:58:48;;;;;;;;;;;;;;;10.36;58.66;100795.96;108758;1275;22515;-83
2024/03/20 12:01:38;;;;;;;;;;;;;;;10.42;58.53;100796.64;107725;1270;24371;-84
2024/03/20 12:04:29;;;;;;;;;;;;;;;10.45;58.54;100800.98;107735;1269;22510;-83
2024/03/20 12:07:26;;;;;;;;;;;;;;;10.47;57.75;100799.21;107772;1275;22554;-84
2024/03/20 12:10:29;;;;;;;;;;;;;;;10.50;58.24;100798.19;107328;1269;25411;-80
2024/03/20 12:13:18;;;;;;;;;;;;;;;10.54;57.25;100797.71;107835;1271;24560;-82
2024/03/20 12:16:08;;;;;;;;;;;;;;;10.55;56.75;100791.31;107253;1275;25477;-83
2024/03/20 12:18:58;;;;;;;;;;;;;;;10.55;56.63;100791.59;107695;1277;24382;-83
2024/03/20 12:21:48;;;;;;;;;;;;;;;10.62;56.89;100793.39;107760;1277;24337;-82
2024/03/20 12:24:37;;;;;;;;;;;;;;;10.68;56.42;100798.33;108128;1277;24195;-83
2024/03/20 12:27:26;;;;;;;;;;;;;;;10.73;56.30;100798.91;108345;1273;22512;-84
2024/03/20 12:30:16;;;;;;;;;;;;;;;10.77;55.12;100799.64;107891;1273;22631;-83
2024/03/20 12:33:05;;;;;;;;;;;;;;;10.80;55.17;100796.47;107978;1271;22713;-83
2024/03/20 12:35:54;;;;;;;;;;;;;;;10.85;55.50;100792.75;107901;1276;22498;-84
2024/03/20 12:38:45;;;;;;;;;;;;;;;10.89;55.32;100784.11;107813;1276;22688;-83
2024/03/20 12:41:35;;;;;;;;;;;;;;;10.92;54.76;100782.52;107953;1273;25388;-84
2024/03/20 12:44:24;;;;;;;;;;;;;;;10.94;54.79;100775.56;107958;1275;24337;-84
2024/03/20 12:47:13;;;;;;;;;;;;;;;11.00;54.45;100775.61;107827;1271;22511;-83
2024/03/20 12:50:05;;;;;;;;;;;;;;;11.04;54.30;100773.19;107934;1273;22533;-83
2024/03/20 12:52:54;;;;;;;;;;;;;;;11.06;53.61;100770.57;107374;1277;24192;-83
2024/03/20 12:55:43;;;;;;;;;;;;;;;11.08;53.49;100767.90;107902;1273;25384;-81
2024/03/20 12:58:33;;;;;;;;;;;;;;;11.15;53.83;100766.30;107963;1273;22897;-82
2024/03/20 13:01:23;;;;;;;;;;;;;;;11.23;53.52;100765.27;107917;1269;22621;-85
2024/03/20 13:04:12;;;;;;;;;;;;;;;11.31;53.39;100768.98;107413;1270;24244;-82
2024/03/20 13:07:01;;;;;;;;;;;;;;;11.38;53.49;100768.88;107393;1277;22576;-82
2024/03/20 13:09:52;;;;;;;;;;;;;;;11.40;52.31;100764.23;107279;1278;22670;-81
2024/03/20 13:12:43;;;;;;;;;;;;;;;11.39;51.98;100762.42;107243;1278;22565;-81
2024/03/20 13:16:03;;;;;;;;;;;;;;;11.44;52.11;100763.18;107132;1278;24239;-84
2024/03/20 13:18:54;;;;;;;;;;;;;;;11.45;52.15;100763.82;107708;1277;25320;-83
2024/03/20 13:21:48;;;;;;;;;;;;;;;11.51;52.12;100757.08;107774;1278;22504;-80
2024/03/20 13:24:37;;;;;;;;;;;;;;;11.56;51.99;100753.14;107751;1278;22532;-82
2024/03/20 13:27:26;;;;;;;;;;;;;;;11.61;51.28;100748.78;107812;1274;24205;-83
2024/03/20 13:30:29;;;;;;;;;;;;;;;11.65;50.87;100748.62;107228;1277;22505;-82
2024/03/20 13:33:18;;;;;;;;;;;;;;;11.67;50.98;100750.13;107710;1277;22561;-81
2024/03/20 13:36:13;;;;;;;;;;;;;;;11.72;50.67;100743.26;107931;1276;25401;-84
2024/03/20 13:39:11;;;;;;;;;;;;;;;11.77;50.64;100743.73;107883;1276;22600;-84
2024/03/20 13:42:09;;;;;;;;;;;;;;;11.80;50.07;100743.85;108000;1273;22505;-83
2024/03/20 13:44:58;;;;;;;;;;;;;;;11.82;50.04;100741.60;107801;1271;22584;-81
2024/03/20 13:47:47;;;;;;;;;;;;;;;11.86;50.27;100744.59;107905;1276;22589;-81
2024/03/20 13:50:36;;;;;;;;;;;;;;;11.87;49.92;100740.91;107808;1271;22529;-81
2024/03/20 13:53:25;;;;;;;;;;;;;;;11.87;49.37;100735.20;107379;1266;26452;-82
2024/03/20 13:56:15;;;;;;;;;;;;;;;11.86;49.59;100729.14;107514;1276;25407;-81
2024/03/20 13:59:05;;;;;;;;;;;;;;;11.91;49.49;100726.98;107824;1272;23487;-82
2024/03/20 14:01:55;;;;;;;;;;;;;;;11.96;49.16;100726.86;107701;1276;23188;-84
2024/03/20 14:04:45;;;;;;;;;;;;;;;12.02;49.02;100727.90;107683;1276;24218;-85
2024/03/20 14:07:34;;;;;;;;;;;;;;;12.03;48.43;100726.19;107894;1273;22527;-82
2024/03/20 14:10:24;;;;;;;;;;;;;;;12.01;47.83;100724.13;107747;1275;22558;-84
2024/03/20 14:13:14;;;;;;;;;;;;;;;12.03;47.67;100725.23;107823;1275;23140;-82
2024/03/20 14:16:04;;;;;;;;;;;;;;;12.05;47.39;100724.41;107799;1275;22586;-83
2024/03/20 14:18:54;;;;;;;;;;;;;;;12.04;47.45;100723.27;107776;1277;22587;-84
2024/03/20 14:21:43;;;;;;;;;;;;;;;12.04;47.46;100720.67;107796;1277;22521;-82
2024/03/20 14:24:32;;;;;;;;;;;;;;;12.02;47.95;100721.34;107888;1276;24244;-83
2024/03/20 14:27:22;;;;;;;;;;;;;;;12.04;47.60;100717.41;108051;1265;22581;-83
2024/03/20 14:30:12;;;;;;;;;;;;;;;12.06;47.55;100719.39;107848;1276;23164;-82
2024/03/20 14:33:02;;;;;;;;;;;;;;;12.05;47.09;100717.05;108075;1275;22738;-84
2024/03/20 14:35:52;;;;;;;;;;;;;;;12.05;46.49;100714.83;108022;1268;22521;-82
2024/03/20 14:38:43;;;;;;;;;;;;;;;12.07;46.80;100713.90;110591;1272;22315;-84
2024/03/20 14:41:33;;;;;;;;;;;;;;;12.10;46.99;100719.46;110465;1273;22436;-83
2024/03/20 14:44:22;;;;;;;;;;;;;;;12.12;46.89;100715.33;110423;1276;23042;-84
2024/03/20 14:47:14;;;;;;;;;;;;;;;12.09;46.32;100711.86;109542;1273;25387;-84
2024/03/20 14:50:03;;;;;;;;;;;;;;;12.10;46.90;100709.60;110501;1273;22578;-83
2024/03/20 14:52:52;;;;;;;;;;;;;;;12.13;46.65;100711.84;110557;1270;22338;-84
2024/03/20 14:55:41;;;;;;;;;;;;;;;12.16;46.46;100712.42;110485;1271;22523;-84
2024/03/20 14:58:31;;;;;;;;;;;;;;;12.17;46.14;100713.92;109004;1270;22975;-83
2024/03/20 15:01:21;;;;;;;;;;;;;;;12.17;45.40;100710.76;107914;1270;22636;-83
2024/03/20 15:04:11;;;;;;;;;;;;;;;12.16;45.69;100711.61;107957;1276;22544;-82